createdAt,value
2023-02-08T00:00:14.596Z,0.00
2023-02-08T00:01:14.535Z,0.00
2023-02-08T00:02:14.628Z,0.00
2023-02-08T00:03:14.449Z,0.00
2023-02-08T00:04:14.407Z,0.00
2023-02-08T00:05:14.363Z,0.00
2023-02-08T00:06:14.325Z,0.00
2023-02-08T00:07:14.283Z,0.00
2023-02-08T00:08:14.246Z,0.00
2023-02-08T00:09:14.200Z,0.00
2023-02-08T00:10:14.160Z,0.00
2023-02-08T00:11:14.116Z,0.00
2023-02-08T00:12:14.112Z,0.00
2023-02-08T00:13:14.049Z,0.00
2023-02-08T00:14:14.005Z,0.00
2023-02-08T00:15:13.956Z,0.00
2023-02-08T00:16:13.946Z,0.00
2023-02-08T00:17:13.889Z,0.00
2023-02-08T00:18:13.825Z,0.00
2023-02-08T00:19:13.788Z,0.00
2023-02-08T00:20:13.740Z,0.00
2023-02-08T00:21:13.700Z,0.00
2023-02-08T00:22:13.657Z,0.00
2023-02-08T00:23:13.633Z,0.00
2023-02-08T00:24:13.578Z,0.00
2023-02-08T00:25:13.544Z,0.00
2023-02-08T00:26:13.498Z,0.00
2023-02-08T00:27:13.480Z,0.00
2023-02-08T00:28:13.478Z,0.00
2023-02-08T00:29:13.372Z,0.00
2023-02-08T00:30:13.332Z,0.00
2023-02-08T00:31:13.425Z,0.00
2023-02-08T00:32:13.245Z,0.00
2023-02-08T00:33:13.209Z,0.00
2023-02-08T00:34:13.162Z,0.00
2023-02-08T00:35:13.112Z,0.00
2023-02-08T00:36:13.094Z,0.00
2023-02-08T00:37:13.038Z,0.00
2023-02-08T00:38:13.010Z,0.00
2023-02-08T00:39:12.950Z,0.00
2023-02-08T00:40:12.904Z,0.00
2023-02-08T00:41:12.863Z,0.00
2023-02-08T00:42:12.825Z,0.00
2023-02-08T00:43:12.785Z,0.00
2023-02-08T00:44:12.736Z,0.00
2023-02-08T00:45:12.719Z,0.00
2023-02-08T00:46:12.731Z,0.00
2023-02-08T00:47:12.633Z,0.00
2023-02-08T00:48:12.569Z,0.00
2023-02-08T00:49:12.543Z,0.00
2023-02-08T00:50:12.504Z,0.00
2023-02-08T00:51:12.450Z,0.00
2023-02-08T00:52:12.417Z,0.00
2023-02-08T00:53:12.368Z,0.00
2023-02-08T00:54:12.322Z,0.00
2023-02-08T00:55:12.280Z,0.00
2023-02-08T00:56:12.255Z,0.00
2023-02-08T00:57:12.198Z,0.00
2023-02-08T00:58:12.170Z,0.00
2023-02-08T00:59:12.117Z,0.00
2023-02-08T01:00:12.070Z,0.00
2023-02-08T01:01:12.109Z,0.00
2023-02-08T01:02:12.082Z,0.00
2023-02-08T01:03:11.939Z,0.00
2023-02-08T01:04:11.909Z,0.00
2023-02-08T01:05:11.858Z,0.00
2023-02-08T01:06:11.821Z,0.00
2023-02-08T01:07:11.777Z,0.00
2023-02-08T01:08:11.739Z,0.00
2023-02-08T01:09:11.698Z,0.00
2023-02-08T01:10:11.654Z,0.00
2023-02-08T01:11:11.617Z,0.00
2023-02-08T01:12:11.565Z,0.00
2023-02-08T01:13:11.526Z,0.00
2023-02-08T01:14:11.490Z,0.00
2023-02-08T01:15:11.452Z,0.00
2023-02-08T01:16:11.508Z,0.00
2023-02-08T01:17:11.366Z,0.00
2023-02-08T01:18:11.328Z,0.00
2023-02-08T01:19:11.273Z,0.00
2023-02-08T01:20:11.236Z,0.00
2023-02-08T01:21:11.194Z,0.00
2023-02-08T01:22:11.156Z,0.00
2023-02-08T01:23:11.111Z,0.00
2023-02-08T01:24:11.075Z,0.00
2023-02-08T01:25:11.027Z,0.00
2023-02-08T01:26:10.990Z,0.00
2023-02-08T01:27:10.939Z,0.00
2023-02-08T01:28:11.052Z,0.00
2023-02-08T01:29:10.859Z,0.00
2023-02-08T01:30:10.825Z,0.00
2023-02-08T01:31:10.812Z,0.00
2023-02-08T01:32:10.737Z,0.00
2023-02-08T01:33:10.692Z,0.00
2023-02-08T01:34:10.653Z,0.00
2023-02-08T01:35:10.604Z,0.00
2023-02-08T01:36:10.567Z,0.00
2023-02-08T01:37:10.527Z,0.00
2023-02-08T01:38:10.482Z,0.00
2023-02-08T01:39:10.438Z,0.00
2023-02-08T01:40:10.410Z,0.00
2023-02-08T01:41:10.354Z,0.00
2023-02-08T01:42:10.324Z,0.00
2023-02-08T01:43:10.275Z,0.00
2023-02-08T01:44:10.237Z,0.00
2023-02-08T01:45:10.185Z,0.00
2023-02-08T01:46:10.203Z,0.00
2023-02-08T01:47:10.108Z,0.00
2023-02-08T01:48:10.065Z,0.00
2023-02-08T01:49:10.028Z,0.00
2023-02-08T01:50:10.000Z,0.00
2023-02-08T01:51:09.940Z,0.00
2023-02-08T01:52:09.899Z,0.00
2023-02-08T01:53:09.857Z,0.00
2023-02-08T01:54:09.840Z,0.00
2023-02-08T01:55:09.768Z,0.00
2023-02-08T01:56:09.728Z,0.00
2023-02-08T01:57:09.680Z,0.00
2023-02-08T01:58:09.640Z,0.00
2023-02-08T01:59:09.600Z,0.00
2023-02-08T02:00:09.563Z,0.00
2023-02-08T02:01:09.529Z,0.00
2023-02-08T02:02:09.476Z,0.00
2023-02-08T02:03:09.432Z,0.00
2023-02-08T02:04:09.410Z,0.00
2023-02-08T02:05:09.351Z,0.00
2023-02-08T02:06:09.310Z,0.00
2023-02-08T02:07:09.265Z,0.00
2023-02-08T02:08:09.225Z,0.00
2023-02-08T02:09:09.187Z,0.00
2023-02-08T02:10:09.159Z,0.00
2023-02-08T02:11:09.101Z,0.00
2023-02-08T02:12:09.059Z,0.00
2023-02-08T02:13:09.012Z,0.00
2023-02-08T02:14:08.978Z,0.00
2023-02-08T02:15:08.928Z,0.00
2023-02-08T02:16:08.922Z,0.00
2023-02-08T02:17:08.849Z,0.00
2023-02-08T02:18:08.806Z,0.00
2023-02-08T02:19:08.764Z,0.00
2023-02-08T02:20:08.722Z,0.00
2023-02-08T02:21:08.678Z,0.00
2023-02-08T02:22:08.640Z,0.00
2023-02-08T02:23:08.598Z,0.00
2023-02-08T02:24:08.571Z,0.00
2023-02-08T02:25:08.520Z,0.00
2023-02-08T02:26:08.464Z,0.00
2023-02-08T02:27:08.432Z,0.00
2023-02-08T02:28:08.421Z,0.00
2023-02-08T02:29:08.348Z,0.00
2023-02-08T02:30:08.306Z,0.00
2023-02-08T02:31:08.259Z,0.00
2023-02-08T02:32:08.230Z,0.00
2023-02-08T02:33:08.217Z,0.00
2023-02-08T02:34:08.134Z,0.00
2023-02-08T02:35:08.095Z,0.00
2023-02-08T02:36:08.056Z,0.00
2023-02-08T02:37:08.005Z,0.00
2023-02-08T02:38:07.966Z,0.00
2023-02-08T02:39:07.925Z,0.00
2023-02-08T02:40:07.882Z,0.00
2023-02-08T02:41:07.841Z,0.00
2023-02-08T02:42:07.798Z,0.00
2023-02-08T02:43:07.764Z,0.00
2023-02-08T02:44:07.715Z,0.00
2023-02-08T02:45:07.671Z,0.00
2023-02-08T02:46:07.692Z,0.00
2023-02-08T02:47:07.597Z,0.00
2023-02-08T02:48:07.552Z,0.00
2023-02-08T02:49:07.508Z,0.00
2023-02-08T02:50:07.469Z,0.00
2023-02-08T02:51:07.427Z,0.00
2023-02-08T02:52:07.395Z,0.00
2023-02-08T02:53:07.341Z,0.00
2023-02-08T02:54:07.314Z,0.00
2023-02-08T02:55:07.261Z,0.00
2023-02-08T02:56:07.216Z,0.00
2023-02-08T02:57:07.192Z,0.00
2023-02-08T02:58:07.138Z,0.00
2023-02-08T02:59:07.110Z,0.00
2023-02-08T03:00:07.054Z,0.00
2023-02-08T03:01:07.046Z,0.00
2023-02-08T03:02:06.973Z,0.00
2023-02-08T03:03:06.939Z,0.00
2023-02-08T03:04:06.910Z,0.00
2023-02-08T03:05:06.848Z,0.00
2023-02-08T03:06:06.808Z,0.00
2023-02-08T03:07:06.758Z,0.00
2023-02-08T03:08:06.716Z,0.00
2023-02-08T03:09:06.678Z,0.00
2023-02-08T03:10:06.634Z,0.00
2023-02-08T03:11:06.595Z,0.00
2023-02-08T03:12:06.558Z,0.00
2023-02-08T03:13:06.511Z,0.00
2023-02-08T03:14:06.469Z,0.00
2023-02-08T03:15:06.432Z,0.00
2023-02-08T03:16:06.380Z,0.00
2023-02-08T03:17:06.349Z,0.00
2023-02-08T03:18:06.298Z,0.00
2023-02-08T03:19:06.265Z,0.00
2023-02-08T03:20:06.224Z,0.00
2023-02-08T03:21:06.171Z,0.00
2023-02-08T03:22:06.133Z,0.00
2023-02-08T03:23:06.090Z,0.00
2023-02-08T03:24:06.046Z,0.00
2023-02-08T03:25:06.004Z,0.00
2023-02-08T03:26:05.965Z,0.00
2023-02-08T03:27:05.921Z,0.00
2023-02-08T03:28:05.912Z,0.00
2023-02-08T03:29:05.845Z,0.00
2023-02-08T03:30:05.797Z,0.00
2023-02-08T03:31:05.843Z,0.00
2023-02-08T03:32:05.719Z,0.00
2023-02-08T03:33:05.666Z,0.00
2023-02-08T03:34:05.628Z,0.00
2023-02-08T03:35:05.592Z,0.00
2023-02-08T03:36:05.545Z,0.00
2023-02-08T03:37:05.507Z,0.00
2023-02-08T03:38:05.466Z,0.00
2023-02-08T03:39:05.423Z,0.00
2023-02-08T03:40:05.375Z,0.00
2023-02-08T03:41:05.344Z,0.00
2023-02-08T03:42:05.297Z,0.00
2023-02-08T03:43:05.257Z,0.00
2023-02-08T03:44:05.210Z,0.00
2023-02-08T03:45:05.193Z,0.00
2023-02-08T03:46:05.200Z,0.00
2023-02-08T03:47:05.086Z,0.00
2023-02-08T03:48:05.045Z,0.00
2023-02-08T03:49:05.006Z,0.00
2023-02-08T03:50:04.963Z,0.00
2023-02-08T03:51:04.919Z,0.00
2023-02-08T03:52:04.883Z,0.00
2023-02-08T03:53:04.840Z,0.00
2023-02-08T03:54:04.792Z,0.00
2023-02-08T03:55:04.777Z,0.00
2023-02-08T03:56:04.704Z,0.00
2023-02-08T03:57:04.678Z,0.00
2023-02-08T03:58:04.623Z,0.00
2023-02-08T03:59:04.575Z,0.00
2023-02-08T04:00:04.541Z,0.00
2023-02-08T04:01:04.599Z,0.00
2023-02-08T04:02:04.451Z,0.00
2023-02-08T04:03:04.415Z,0.00
2023-02-08T04:04:04.379Z,0.00
2023-02-08T04:05:04.327Z,0.00
2023-02-08T04:06:04.296Z,0.00
2023-02-08T04:07:04.247Z,0.00
2023-02-08T04:08:04.202Z,0.00
2023-02-08T04:09:04.170Z,0.00
2023-02-08T04:10:04.114Z,0.00
2023-02-08T04:11:04.076Z,0.00
2023-02-08T04:12:04.040Z,0.00
2023-02-08T04:13:03.989Z,0.00
2023-02-08T04:14:03.994Z,0.00
2023-02-08T04:15:03.907Z,0.00
2023-02-08T04:16:03.912Z,0.00
2023-02-08T04:17:03.828Z,0.00
2023-02-08T04:18:03.779Z,0.00
2023-02-08T04:19:03.743Z,0.00
2023-02-08T04:20:03.695Z,0.00
2023-02-08T04:21:03.654Z,0.00
2023-02-08T04:22:03.618Z,0.00
2023-02-08T04:23:03.575Z,0.00
2023-02-08T04:24:03.539Z,0.00
2023-02-08T04:25:03.488Z,0.00
2023-02-08T04:26:03.442Z,0.00
2023-02-08T04:27:05.763Z,0.00
2023-02-08T04:28:03.439Z,0.00
2023-02-08T04:29:03.323Z,0.00
2023-02-08T04:30:03.282Z,0.00
2023-02-08T04:31:03.386Z,0.00
2023-02-08T04:32:03.199Z,0.00
2023-02-08T04:33:03.157Z,0.00
2023-02-08T04:34:03.142Z,0.00
2023-02-08T04:35:03.083Z,0.00
2023-02-08T04:36:03.031Z,0.00
2023-02-08T04:37:02.992Z,0.00
2023-02-08T04:38:02.951Z,0.00
2023-02-08T04:39:02.909Z,0.00
2023-02-08T04:40:02.871Z,0.00
2023-02-08T04:41:02.830Z,0.00
2023-02-08T04:42:03.405Z,0.00
2023-02-08T04:43:02.743Z,0.00
2023-02-08T04:44:02.699Z,0.00
2023-02-08T04:45:02.666Z,0.00
2023-02-08T04:46:02.691Z,0.00
2023-02-08T04:47:02.583Z,0.00
2023-02-08T04:48:02.539Z,0.00
2023-02-08T04:49:02.493Z,0.00
2023-02-08T04:50:02.448Z,0.00
2023-02-08T04:51:02.405Z,0.00
2023-02-08T04:52:02.369Z,0.00
2023-02-08T04:53:02.324Z,0.00
2023-02-08T04:54:02.281Z,0.00
2023-02-08T04:55:02.243Z,0.00
2023-02-08T04:56:02.194Z,0.00
2023-02-08T04:57:02.164Z,0.00
2023-02-08T04:58:02.138Z,0.00
2023-02-08T04:59:02.103Z,0.00
2023-02-08T05:00:02.053Z,0.00
2023-02-08T05:01:01.999Z,0.00
2023-02-08T05:02:01.947Z,0.00
2023-02-08T05:03:01.905Z,0.00
2023-02-08T05:04:01.870Z,0.00
2023-02-08T05:05:01.866Z,0.00
2023-02-08T05:06:01.781Z,0.00
2023-02-08T05:07:01.731Z,0.00
2023-02-08T05:08:01.695Z,0.00
2023-02-08T05:09:01.653Z,0.00
2023-02-08T05:10:01.622Z,0.00
2023-02-08T05:11:01.564Z,0.00
2023-02-08T05:12:01.554Z,0.00
2023-02-08T05:13:01.479Z,0.00
2023-02-08T05:14:01.440Z,0.00
2023-02-08T05:15:01.446Z,0.00
2023-02-08T05:16:01.385Z,0.00
2023-02-08T05:17:01.310Z,0.00
2023-02-08T05:18:01.277Z,0.00
2023-02-08T05:19:01.236Z,0.00
2023-02-08T05:20:01.189Z,0.00
2023-02-08T05:21:01.148Z,0.00
2023-02-08T05:22:01.096Z,0.00
2023-02-08T05:23:01.061Z,0.00
2023-02-08T05:24:01.018Z,0.00
2023-02-08T05:25:00.971Z,0.00
2023-02-08T05:26:00.936Z,0.00
2023-02-08T05:27:00.905Z,0.00
2023-02-08T05:28:00.915Z,0.00
2023-02-08T05:29:00.802Z,0.00
2023-02-08T05:30:00.767Z,0.00
2023-02-08T05:31:00.811Z,0.00
2023-02-08T05:32:00.767Z,0.00
2023-02-08T05:33:00.643Z,0.00
2023-02-08T05:34:00.605Z,0.00
2023-02-08T05:35:00.561Z,0.00
2023-02-08T05:36:00.512Z,0.00
2023-02-08T05:37:00.472Z,0.00
2023-02-08T05:38:00.424Z,0.00
2023-02-08T05:39:00.385Z,0.00
2023-02-08T05:40:00.344Z,0.00
2023-02-08T05:41:00.295Z,0.00
2023-02-08T05:42:00.259Z,0.00
2023-02-08T05:43:00.212Z,0.00
2023-02-08T05:44:00.173Z,0.00
2023-02-08T05:45:00.130Z,0.00
2023-02-08T05:46:00.117Z,0.00
2023-02-08T05:47:00.140Z,0.00
2023-02-08T05:47:59.998Z,0.00
2023-02-08T05:48:59.960Z,0.00
2023-02-08T05:49:59.921Z,0.00
2023-02-08T05:50:59.870Z,0.00
2023-02-08T05:51:59.833Z,0.00
2023-02-08T05:52:59.794Z,0.00
2023-02-08T05:53:59.745Z,0.00
2023-02-08T05:54:59.704Z,0.00
2023-02-08T05:55:59.676Z,0.00
2023-02-08T05:56:59.623Z,0.00
2023-02-08T05:57:59.578Z,0.00
2023-02-08T05:58:59.544Z,0.00
2023-02-08T05:59:59.504Z,0.00
2023-02-08T06:00:59.454Z,0.00
2023-02-08T06:01:59.413Z,0.00
2023-02-08T06:02:59.428Z,0.00
2023-02-08T06:03:59.362Z,0.00
2023-02-08T06:04:59.296Z,0.00
2023-02-08T06:05:59.258Z,0.00
2023-02-08T06:06:59.197Z,0.00
2023-02-08T06:07:59.155Z,0.00
2023-02-08T06:08:59.115Z,0.00
2023-02-08T06:09:59.087Z,0.00
2023-02-08T06:10:59.061Z,0.00
2023-02-08T06:11:58.989Z,0.00
2023-02-08T06:12:58.956Z,0.00
2023-02-08T06:13:58.901Z,0.00
2023-02-08T06:14:58.880Z,0.00
2023-02-08T06:15:58.829Z,0.00
2023-02-08T06:16:58.782Z,0.00
2023-02-08T06:17:58.737Z,0.00
2023-02-08T06:18:58.690Z,0.00
2023-02-08T06:19:58.654Z,0.00
2023-02-08T06:20:58.610Z,0.00
2023-02-08T06:21:58.567Z,0.00
2023-02-08T06:22:58.526Z,0.00
2023-02-08T06:23:58.498Z,0.00
2023-02-08T06:24:58.446Z,0.00
2023-02-08T06:25:58.395Z,0.00
2023-02-08T06:26:58.359Z,0.00
2023-02-08T06:27:58.364Z,0.00
2023-02-08T06:28:58.277Z,0.00
2023-02-08T06:29:58.239Z,0.00
2023-02-08T06:30:58.203Z,0.00
2023-02-08T06:31:58.237Z,0.00
2023-02-08T06:32:58.105Z,4.00
2023-02-08T06:33:58.059Z,0.00
2023-02-08T06:34:58.028Z,0.00
2023-02-08T06:35:57.986Z,4.00
2023-02-08T06:36:57.940Z,4.00
2023-02-08T06:37:57.904Z,4.00
2023-02-08T06:38:57.874Z,4.00
2023-02-08T06:39:57.809Z,4.00
2023-02-08T06:40:57.784Z,4.00
2023-02-08T06:41:57.727Z,8.00
2023-02-08T06:42:57.688Z,8.00
2023-02-08T06:43:57.641Z,8.00
2023-02-08T06:44:57.602Z,12.00
2023-02-08T06:45:57.575Z,12.00
2023-02-08T06:46:57.516Z,16.00
2023-02-08T06:47:57.472Z,16.00
2023-02-08T06:48:57.454Z,20.00
2023-02-08T06:49:57.392Z,20.00
2023-02-08T06:50:57.356Z,28.00
2023-02-08T06:51:57.310Z,28.00
2023-02-08T06:52:57.260Z,32.00
2023-02-08T06:53:57.240Z,40.00
2023-02-08T06:54:57.185Z,44.00
2023-02-08T06:55:57.133Z,52.00
2023-02-08T06:56:57.100Z,52.00
2023-02-08T06:57:57.054Z,56.00
2023-02-08T06:58:57.007Z,64.00
2023-02-08T06:59:56.963Z,72.00
2023-02-08T07:00:56.949Z,80.00
2023-02-08T07:01:56.892Z,88.00
2023-02-08T07:02:56.848Z,92.00
2023-02-08T07:03:56.796Z,100.00
2023-02-08T07:04:56.762Z,108.00
2023-02-08T07:06:04.858Z,116.00
2023-02-08T07:06:56.672Z,124.00
2023-02-08T07:07:56.641Z,132.00
2023-02-08T07:08:56.588Z,140.00
2023-02-08T07:09:56.567Z,148.00
2023-02-08T07:10:56.505Z,156.00
2023-02-08T07:11:56.473Z,168.00
2023-02-08T07:12:56.419Z,172.00
2023-02-08T07:13:56.379Z,184.00
2023-02-08T07:14:56.337Z,188.00
2023-02-08T07:15:56.293Z,200.00
2023-02-08T07:16:56.520Z,212.00
2023-02-08T07:17:56.207Z,216.00
2023-02-08T07:18:56.174Z,228.00
2023-02-08T07:19:56.121Z,236.00
2023-02-08T07:20:56.081Z,244.00
2023-02-08T07:21:56.047Z,252.00
2023-02-08T07:22:55.998Z,264.00
2023-02-08T07:23:55.956Z,268.00
2023-02-08T07:24:55.917Z,276.00
2023-02-08T07:25:55.875Z,288.00
2023-02-08T07:26:55.829Z,296.00
2023-02-08T07:27:55.805Z,300.00
2023-02-08T07:28:55.752Z,312.00
2023-02-08T07:29:55.698Z,320.00
2023-02-08T07:30:55.714Z,328.00
2023-02-08T07:31:55.682Z,336.00
2023-02-08T07:32:55.578Z,340.00
2023-02-08T07:33:55.536Z,348.00
2023-02-08T07:34:55.490Z,356.00
2023-02-08T07:35:55.455Z,364.00
2023-02-08T07:36:55.408Z,376.00
2023-02-08T07:37:55.365Z,380.00
2023-02-08T07:38:55.333Z,388.00
2023-02-08T07:39:55.280Z,392.00
2023-02-08T07:40:55.247Z,400.00
2023-02-08T07:41:55.214Z,408.00
2023-02-08T07:42:55.159Z,412.00
2023-02-08T07:43:55.115Z,416.00
2023-02-08T07:44:55.069Z,424.00
2023-02-08T07:45:55.085Z,432.00
2023-02-08T07:46:55.009Z,436.00
2023-02-08T07:47:54.944Z,444.00
2023-02-08T07:48:54.905Z,444.00
2023-02-08T07:49:54.866Z,452.00
2023-02-08T07:50:54.826Z,460.00
2023-02-08T07:51:54.774Z,460.00
2023-02-08T07:52:54.738Z,468.00
2023-02-08T07:53:54.698Z,472.00
2023-02-08T07:54:54.665Z,480.00
2023-02-08T07:55:54.606Z,484.00
2023-02-08T07:56:54.568Z,488.00
2023-02-08T07:57:54.524Z,492.00
2023-02-08T07:58:54.493Z,500.00
2023-02-08T07:59:54.441Z,504.00
2023-02-08T08:00:54.411Z,504.00
2023-02-08T08:01:54.467Z,512.00
2023-02-08T08:02:54.312Z,512.00
2023-02-08T08:03:54.321Z,520.00
2023-02-08T08:04:54.243Z,524.00
2023-02-08T08:05:55.089Z,528.00
2023-02-08T08:06:54.151Z,532.00
2023-02-08T08:07:54.104Z,536.00
2023-02-08T08:08:54.091Z,540.00
2023-02-08T08:09:54.020Z,544.00
2023-02-08T08:10:53.984Z,552.00
2023-02-08T08:11:53.938Z,552.00
2023-02-08T08:12:53.901Z,556.00
2023-02-08T08:13:53.862Z,560.00
2023-02-08T08:14:53.813Z,564.00
2023-02-08T08:15:53.773Z,564.00
2023-02-08T08:16:53.733Z,568.00
2023-02-08T08:17:53.687Z,572.00
2023-02-08T08:18:53.643Z,576.00
2023-02-08T08:19:53.603Z,580.00
2023-02-08T08:20:53.561Z,584.00
2023-02-08T08:21:53.531Z,584.00
2023-02-08T08:22:53.491Z,588.00
2023-02-08T08:23:53.440Z,592.00
2023-02-08T08:24:53.394Z,592.00
2023-02-08T08:25:53.350Z,592.00
2023-02-08T08:26:53.313Z,600.00
2023-02-08T08:27:53.281Z,600.00
2023-02-08T08:28:53.289Z,604.00
2023-02-08T08:29:53.192Z,604.00
2023-02-08T08:30:53.298Z,608.00
2023-02-08T08:31:53.143Z,608.00
2023-02-08T08:32:53.062Z,612.00
2023-02-08T08:33:53.016Z,616.00
2023-02-08T08:34:52.985Z,620.00
2023-02-08T08:35:52.931Z,620.00
2023-02-08T08:36:52.894Z,620.00
2023-02-08T08:37:52.851Z,624.00
2023-02-08T08:38:52.810Z,624.00
2023-02-08T08:39:52.764Z,624.00
2023-02-08T08:40:52.727Z,628.00
2023-02-08T08:41:52.699Z,636.00
2023-02-08T08:42:52.658Z,636.00
2023-02-08T08:43:52.601Z,636.00
2023-02-08T08:44:52.560Z,640.00
2023-02-08T08:45:53.169Z,640.00
2023-02-08T08:46:52.483Z,644.00
2023-02-08T08:47:52.433Z,644.00
2023-02-08T08:48:52.408Z,644.00
2023-02-08T08:49:52.360Z,648.00
2023-02-08T08:50:52.321Z,648.00
2023-02-08T08:51:52.272Z,652.00
2023-02-08T08:52:52.225Z,656.00
2023-02-08T08:53:52.190Z,652.00
2023-02-08T08:54:52.155Z,656.00
2023-02-08T08:55:52.107Z,660.00
2023-02-08T08:56:52.059Z,660.00
2023-02-08T08:57:52.016Z,664.00
2023-02-08T08:58:51.977Z,664.00
2023-02-08T08:59:51.941Z,664.00
2023-02-08T09:00:51.892Z,668.00
2023-02-08T09:01:51.979Z,668.00
2023-02-08T09:02:51.815Z,672.00
2023-02-08T09:03:51.768Z,672.00
2023-02-08T09:04:51.726Z,676.00
2023-02-08T09:05:51.681Z,680.00
2023-02-08T09:06:51.644Z,680.00
2023-02-08T09:07:51.596Z,680.00
2023-02-08T09:08:51.910Z,684.00
2023-02-08T09:09:51.531Z,684.00
2023-02-08T09:10:51.484Z,688.00
2023-02-08T09:11:51.435Z,688.00
2023-02-08T09:12:51.409Z,692.00
2023-02-08T09:13:51.359Z,692.00
2023-02-08T09:14:51.316Z,696.00
2023-02-08T09:15:51.346Z,696.00
2023-02-08T09:16:51.234Z,700.00
2023-02-08T09:17:51.202Z,700.00
2023-02-08T09:18:51.148Z,704.00
2023-02-08T09:19:51.114Z,704.00
2023-02-08T09:20:51.067Z,708.00
2023-02-08T09:21:51.023Z,708.00
2023-02-08T09:22:50.984Z,716.00
2023-02-08T09:23:50.947Z,712.00
2023-02-08T09:24:50.903Z,716.00
2023-02-08T09:25:50.859Z,720.00
2023-02-08T09:26:50.841Z,724.00
2023-02-08T09:27:50.798Z,724.00
2023-02-08T09:28:50.746Z,724.00
2023-02-08T09:29:50.697Z,728.00
2023-02-08T09:30:50.666Z,728.00
2023-02-08T09:31:50.757Z,732.00
2023-02-08T09:32:50.578Z,736.00
2023-02-08T09:33:50.543Z,736.00
2023-02-08T09:34:50.493Z,736.00
2023-02-08T09:35:50.462Z,740.00
2023-02-08T09:36:50.416Z,744.00
2023-02-08T09:37:50.375Z,744.00
2023-02-08T09:38:50.333Z,748.00
2023-02-08T09:39:50.303Z,748.00
2023-02-08T09:40:50.265Z,748.00
2023-02-08T09:41:50.219Z,752.00
2023-02-08T09:42:50.184Z,752.00
2023-02-08T09:43:50.133Z,756.00
2023-02-08T09:44:50.095Z,756.00
2023-02-08T09:45:59.152Z,760.00
2023-02-08T09:46:50.111Z,764.00
2023-02-08T09:47:49.998Z,764.00
2023-02-08T09:48:49.930Z,768.00
2023-02-08T09:49:49.922Z,772.00
2023-02-08T09:50:49.849Z,776.00
2023-02-08T09:51:49.811Z,780.00
2023-02-08T09:52:49.769Z,780.00
2023-02-08T09:53:49.727Z,788.00
2023-02-08T09:54:49.694Z,788.00
2023-02-08T09:55:49.652Z,792.00
2023-02-08T09:56:49.605Z,796.00
2023-02-08T09:57:49.566Z,800.00
2023-02-08T09:58:49.542Z,804.00
2023-02-08T09:59:49.490Z,804.00
2023-02-08T10:00:49.478Z,812.00
2023-02-08T10:01:49.409Z,812.00
2023-02-08T10:02:49.368Z,820.00
2023-02-08T10:03:49.334Z,824.00
2023-02-08T10:04:49.284Z,828.00
2023-02-08T10:05:49.260Z,1184.00
2023-02-08T10:06:50.227Z,1776.00
2023-02-08T10:07:49.173Z,1844.00
2023-02-08T10:08:49.134Z,1760.00
2023-02-08T10:09:49.086Z,1788.00
2023-02-08T10:10:49.053Z,1796.00
2023-02-08T10:11:49.016Z,1716.00
2023-02-08T10:12:48.976Z,1260.00
2023-02-08T10:13:48.934Z,1012.00
2023-02-08T10:14:48.894Z,1396.00
2023-02-08T10:15:48.849Z,1608.00
2023-02-08T10:16:48.826Z,1608.00
2023-02-08T10:17:48.789Z,1588.00
2023-02-08T10:18:48.764Z,1552.00
2023-02-08T10:19:48.703Z,1520.00
2023-02-08T10:20:48.656Z,1496.00
2023-02-08T10:21:48.730Z,1484.00
2023-02-08T10:22:48.582Z,1468.00
2023-02-08T10:23:48.544Z,1440.00
2023-02-08T10:24:48.507Z,1500.00
2023-02-08T10:25:48.510Z,1600.00
2023-02-08T10:26:48.437Z,1672.00
2023-02-08T10:27:48.519Z,1724.00
2023-02-08T10:28:49.313Z,1760.00
2023-02-08T10:29:48.321Z,1788.00
2023-02-08T10:30:48.338Z,1812.00
2023-02-08T10:31:48.362Z,1840.00
2023-02-08T10:32:48.212Z,1860.00
2023-02-08T10:33:48.170Z,1888.00
2023-02-08T10:34:48.137Z,1840.00
2023-02-08T10:35:48.092Z,1948.00
2023-02-08T10:36:48.086Z,1928.00
2023-02-08T10:37:48.025Z,1956.00
2023-02-08T10:38:47.992Z,2028.00
2023-02-08T10:39:47.949Z,2064.00
2023-02-08T10:40:47.915Z,2108.00
2023-02-08T10:41:47.878Z,2144.00
2023-02-08T10:42:47.862Z,2176.00
2023-02-08T10:43:47.819Z,2212.00
2023-02-08T10:44:48.483Z,2252.00
2023-02-08T10:45:47.772Z,2292.00
2023-02-08T10:46:47.698Z,2340.00
2023-02-08T10:47:47.663Z,2392.00
2023-02-08T10:48:47.623Z,2436.00
2023-02-08T10:49:47.603Z,2480.00
2023-02-08T10:50:47.585Z,2524.00
2023-02-08T10:51:47.580Z,2568.00
2023-02-08T10:52:47.484Z,2608.00
2023-02-08T10:53:47.452Z,2652.00
2023-02-08T10:54:47.421Z,2692.00
2023-02-08T10:55:47.379Z,2740.00
2023-02-08T10:56:47.341Z,2772.00
2023-02-08T10:57:47.311Z,2816.00
2023-02-08T10:58:47.295Z,2856.00
2023-02-08T10:59:47.256Z,2904.00
2023-02-08T11:00:47.261Z,2952.00
2023-02-08T11:01:47.243Z,2996.00
2023-02-08T11:02:47.251Z,3048.00
2023-02-08T11:03:47.136Z,3108.00
2023-02-08T11:04:47.066Z,3160.00
2023-02-08T11:05:47.041Z,3204.00
2023-02-08T11:06:47.020Z,3260.00
2023-02-08T11:07:46.963Z,3316.00
2023-02-08T11:08:46.934Z,3372.00
2023-02-08T11:09:46.948Z,3432.00
2023-02-08T11:10:46.864Z,3488.00
2023-02-08T11:11:46.835Z,3564.00
2023-02-08T11:12:46.802Z,3664.00
2023-02-08T11:13:46.766Z,3756.00
2023-02-08T11:14:47.626Z,3856.00
2023-02-08T11:15:46.687Z,3960.00
2023-02-08T11:16:46.697Z,4044.00
2023-02-08T11:17:46.640Z,4148.00
2023-02-08T11:18:46.594Z,4240.00
2023-02-08T11:19:46.559Z,4320.00
2023-02-08T11:20:46.520Z,4416.00
2023-02-08T11:21:46.504Z,4512.00
2023-02-08T11:22:46.456Z,4616.00
2023-02-08T11:23:46.426Z,4696.00
2023-02-08T11:24:46.882Z,4772.00
2023-02-08T11:25:47.438Z,4860.00
2023-02-08T11:26:46.330Z,4932.00
2023-02-08T11:27:47.112Z,4992.00
2023-02-08T11:28:46.255Z,5056.00
2023-02-08T11:29:46.825Z,5124.00
2023-02-08T11:31:46.290Z,5256.00
2023-02-08T11:32:47.277Z,5324.00
2023-02-08T11:33:46.293Z,5388.00
2023-02-08T11:34:46.135Z,5468.00
2023-02-08T11:35:46.074Z,5508.00
2023-02-08T11:36:46.081Z,5580.00
2023-02-08T11:37:46.037Z,5644.00
2023-02-08T11:38:45.922Z,5700.00
2023-02-08T11:39:45.892Z,5772.00
2023-02-08T11:40:45.859Z,5836.00
2023-02-08T11:41:46.068Z,5896.00
2023-02-08T11:42:46.047Z,5936.00
2023-02-08T11:43:46.253Z,6004.00
2023-02-08T11:44:47.477Z,6080.00
2023-02-08T11:45:45.909Z,6144.00
2023-02-08T11:46:45.649Z,6188.00
2023-02-08T11:47:45.623Z,6248.00
2023-02-08T11:48:45.619Z,6312.00
2023-02-08T11:49:45.552Z,6352.00
2023-02-08T11:50:45.522Z,6436.00
2023-02-08T11:51:45.502Z,6472.00
2023-02-08T11:52:45.460Z,6536.00
2023-02-08T11:53:45.422Z,6596.00
2023-02-08T11:54:45.391Z,6632.00
2023-02-08T11:55:45.477Z,6684.00
2023-02-08T11:56:45.329Z,6756.00
2023-02-08T11:57:45.293Z,6796.00
2023-02-08T11:58:45.261Z,6840.00
2023-02-08T11:59:45.229Z,6912.00
2023-02-08T12:00:45.199Z,6964.00
2023-02-08T12:01:45.160Z,7008.00
2023-02-08T12:02:45.166Z,7056.00
2023-02-08T12:03:45.156Z,7112.00
2023-02-08T12:04:45.087Z,7164.00
2023-02-08T12:05:45.271Z,7212.00
2023-02-08T12:06:44.998Z,7256.00
2023-02-08T12:07:44.967Z,7316.00
2023-02-08T12:08:44.930Z,7356.00
2023-02-08T12:09:44.911Z,7412.00
2023-02-08T12:10:44.860Z,7468.00
2023-02-08T12:11:44.830Z,7520.00
2023-02-08T12:12:44.795Z,7584.00
2023-02-08T12:13:44.771Z,7636.00
2023-02-08T12:14:44.738Z,7676.00
2023-02-08T12:15:57.401Z,7704.00
2023-02-08T12:16:44.698Z,7792.00
2023-02-08T12:17:44.654Z,7752.00
2023-02-08T12:18:44.596Z,7876.00
2023-02-08T12:19:44.586Z,7932.00
2023-02-08T12:20:44.537Z,7988.00
2023-02-08T12:21:44.498Z,8016.00
2023-02-08T12:22:44.465Z,8076.00
2023-02-08T12:23:44.433Z,8120.00
2023-02-08T12:24:44.403Z,8148.00
2023-02-08T12:25:44.711Z,8224.00
2023-02-08T12:26:44.330Z,8264.00
2023-02-08T12:27:44.298Z,8280.00
2023-02-08T12:28:44.276Z,8324.00
2023-02-08T12:29:48.454Z,8396.00
2023-02-08T12:30:44.298Z,8440.00
2023-02-08T12:31:44.218Z,8504.00
2023-02-08T12:32:44.142Z,8576.00
2023-02-08T12:33:44.121Z,8616.00
2023-02-08T12:34:44.064Z,8656.00
2023-02-08T12:36:01.414Z,8672.00
2023-02-08T12:36:43.999Z,8692.00
2023-02-08T12:37:44.004Z,8772.00
2023-02-08T12:38:43.937Z,8820.00
2023-02-08T12:39:43.898Z,8844.00
2023-02-08T12:40:43.870Z,8900.00
2023-02-08T12:41:43.834Z,8916.00
2023-02-08T12:42:43.806Z,8972.00
2023-02-08T12:43:43.773Z,9012.00
2023-02-08T12:44:43.730Z,9028.00
2023-02-08T12:45:44.104Z,9056.00
2023-02-08T12:46:43.682Z,9056.00
2023-02-08T12:47:51.699Z,9092.00
2023-02-08T12:48:43.638Z,9136.00
2023-02-08T12:49:43.593Z,9136.00